Time;durP1;ratioP1;P1;durP2;ratioP2;P2;SDS_P1;SDS_P2;PMS_P1;PMS_P2;Temp;Humidity;BMP_temperature;BMP_pressure;BME280_temperature;BME280_humidity;BME280_pressure;Samples;Min_cycle;Max_cycle;Signal;HPM_P1;HPM_P2
2023/08/03 00:01:42;;;;;;;1.70;1.60;;;;;;;;;;6202733;23;20803;-90
2023/08/03 00:06:54;;;;;;;1.70;1.60;;;;;;;;;;6199681;23;20399;-91
2023/08/03 00:09:26;;;;;;;2.67;2.30;;;17.70;1.00;;;;;;6177838;23;20408;-90
2023/08/03 00:11:54;;;;;;;3.97;1.87;;;;;;;;;;6186341;23;20479;-88
2023/08/03 00:14:22;;;;;;;2.23;2.03;;;17.60;1.00;;;;;;6187460;23;20420;-87
2023/08/03 00:16:53;;;;;;;3.03;2.47;;;;;;;;;;6187267;23;20399;-88
2023/08/03 00:19:23;;;;;;;2.60;1.93;;;17.50;88.20;;;;;;6182502;23;20466;-90
2023/08/03 00:21:50;;;;;;;2.23;1.87;;;;;;;;;;6180035;23;20402;-90
2023/08/03 00:24:20;;;;;;;1.90;1.60;;;;;;;;;;6179030;23;20498;-89
2023/08/03 00:26:52;;;;;;;3.53;2.63;;;17.30;99.90;;;;;;6181890;23;20435;-90
2023/08/03 00:29:32;;;;;;;3.27;2.40;;;17.20;99.90;;;;;;6180427;23;20431;-91
2023/08/03 00:32:01;;;;;;;3.57;2.20;;;;;;;;;;6176265;23;20442;-88
2023/08/03 00:34:36;;;;;;;3.07;2.50;;;17.20;99.90;;;;;;6186992;23;20399;-87
2023/08/03 00:37:05;;;;;;;3.63;3.20;;;16.90;99.90;;;;;;6174482;23;20421;-88
2023/08/03 00:39:35;;;;;;;6.40;1.70;;;17.10;99.90;;;;;;6170448;23;20499;-89
2023/08/03 00:42:05;;;;;;;1.93;1.80;;;17.10;99.90;;;;;;6164561;23;20411;-90
2023/08/03 00:44:37;;;;;;;3.50;2.30;;;17.10;99.90;;;;;;6164130;23;20414;-90
2023/08/03 00:47:06;;;;;;;4.90;1.90;;;17.10;99.90;;;;;;6184709;23;20376;-86
2023/08/03 00:49:33;;;;;;;1.90;1.80;;;;;;;;;;6185724;23;20399;-88
2023/08/03 00:52:01;;;;;;;4.10;1.30;;;;;;;;;;6184614;23;20451;-89
2023/08/03 00:54:28;;;;;;;2.00;1.67;;;17.10;99.90;;;;;;6165987;23;20395;-90
2023/08/03 00:56:58;;;;;;;1.63;1.50;;;;;;;;;;6161429;23;20419;-90
2023/08/03 00:59:25;;;;;;;2.97;2.00;;;;;;;;;;6160575;23;20983;-90
2023/08/03 01:01:53;;;;;;;3.47;1.77;;;17.10;99.90;;;;;;6159961;23;20794;-90
2023/08/03 01:04:20;;;;;;;1.60;1.50;;;;;;;;;;6159576;23;20485;-91
2023/08/03 01:06:50;;;;;;;1.90;1.53;;;17.20;99.90;;;;;;6159372;23;20494;-90
2023/08/03 01:09:17;;;;;;;2.17;2.07;;;17.10;99.90;;;;;;6158451;23;20432;-90
2023/08/03 01:11:44;;;;;;;4.50;1.90;;;;;;;;;;6159842;23;20529;-90
2023/08/03 01:14:11;;;;;;;5.33;2.13;;;17.20;99.90;;;;;;6158829;23;20439;-90
2023/08/03 01:16:38;;;;;;;2.53;1.83;;;;;;;;;;6159158;23;20449;-91
2023/08/03 01:19:08;;;;;;;2.90;1.87;;;17.30;99.90;;;;;;6159578;23;20459;-90
2023/08/03 01:21:46;;;;;;;2.30;1.90;;;17.20;99.90;;;;;;6159826;23;20435;-91
2023/08/03 01:24:14;;;;;;;2.13;1.97;;;17.20;99.90;;;;;;6159768;23;20390;-91
2023/08/03 01:26:44;;;;;;;1.90;1.80;;;;;;;;;;6160115;23;20811;-90
2023/08/03 01:29:15;;;;;;;2.40;2.00;;;;;;;;;;6158870;23;20432;-91
2023/08/03 01:31:44;;;;;;;2.63;2.20;;;17.60;99.90;;;;;;6160643;23;20526;-91
2023/08/03 01:34:13;;;;;;;2.47;2.27;;;;;;;;;;6160949;23;20419;-91
2023/08/03 01:36:40;;;;;;;2.77;2.57;;;;;;;;;;6167429;23;20727;-90
2023/08/03 01:39:09;;;;;;;2.80;2.20;;;17.10;99.90;;;;;;6158850;23;20447;-91
2023/08/03 01:41:41;;;;;;;3.40;2.00;;;17.20;99.90;;;;;;6159922;23;20403;-90
2023/08/03 01:44:31;;;;;;;3.83;2.63;;;17.20;99.90;;;;;;6160885;23;20442;-91
2023/08/03 01:47:00;;;;;;;3.27;3.00;;;17.20;99.90;;;;;;6144464;23;20750;-91
2023/08/03 01:49:32;;;;;;;2.23;2.03;;;17.20;99.90;;;;;;6177418;23;20418;-90
2023/08/03 01:51:59;;;;;;;2.37;2.17;;;;;;;;;;6184249;23;20490;-90
2023/08/03 01:54:28;;;;;;;3.67;2.63;;;17.20;99.90;;;;;;6185144;23;20431;-90
2023/08/03 01:56:58;;;;;;;2.30;2.10;;;17.10;99.90;;;;;;6171918;23;20443;-91
2023/08/03 01:59:28;;;;;;;3.07;2.10;;;;;;;;;;6161667;23;20418;-91
2023/08/03 02:02:00;;;;;;;2.40;2.20;;;17.20;99.90;;;;;;6160640;23;20426;-91
2023/08/03 02:04:27;;;;;;;2.87;2.50;;;17.00;99.90;;;;;;6161606;23;20402;-91
2023/08/03 02:07:09;;;;;;;2.40;2.20;;;17.20;99.90;;;;;;6160505;23;20894;-91
2023/08/03 02:09:36;;;;;;;3.13;2.40;;;;;;;;;;6162201;23;20410;-91
2023/08/03 02:12:08;;;;;;;2.27;2.07;;;17.20;99.90;;;;;;6184065;23;20437;-90
2023/08/03 02:14:41;;;;;;;2.80;2.40;;;17.20;99.90;;;;;;6184916;23;20520;-89
2023/08/03 02:17:08;;;;;;;3.93;3.00;;;17.50;99.90;;;;;;6173755;23;20397;-90
2023/08/03 02:19:37;;;;;;;6.70;2.40;;;;;;;;;;6168898;23;20471;-91
2023/08/03 02:22:05;;;;;;;2.40;2.20;;;17.00;99.90;;;;;;6167652;23;20399;-91
2023/08/03 02:24:35;;;;;;;3.80;2.17;;;16.80;99.90;;;;;;6177731;23;20415;-91
2023/08/03 02:27:06;;;;;;;4.00;2.90;;;17.00;99.90;;;;;;6181111;23;20449;-90
2023/08/03 02:29:34;;;;;;;2.47;2.27;;;;;;;;;;6184797;23;20471;-90
2023/08/03 02:32:02;;;;;;;4.47;4.07;;;;;;;;;;6163764;23;20470;-91
2023/08/03 02:34:29;;;;;;;5.43;2.77;;;;;;;;;;6160732;23;20463;-91
2023/08/03 02:37:02;;;;;;;3.47;2.47;;;;;;;;;;6158691;23;20398;-91
2023/08/03 02:39:29;;;;;;;3.50;2.80;;;;;;;;;;6158558;23;20398;-91
2023/08/03 02:41:57;;;;;;;3.07;2.87;;;;;;;;;;6158077;23;20439;-90
2023/08/03 02:44:25;;;;;;;4.73;3.20;;;16.90;99.90;;;;;;6158028;23;20420;-91
2023/08/03 02:46:52;;;;;;;3.50;2.83;;;;;;;;;;6158265;23;20414;-91
2023/08/03 02:49:19;;;;;;;3.90;2.70;;;;;;;;;;6161582;23;20513;-88
2023/08/03 02:51:48;;;;;;;3.13;2.93;;;;;;;;;;6168801;23;20493;-91
2023/08/03 02:54:15;;;;;;;4.23;2.93;;;;;;;;;;6159302;23;20441;-91
2023/08/03 02:56:42;;;;;;;6.40;2.87;;;;;;;;;;6158435;23;20399;-91
2023/08/03 02:59:10;;;;;;;3.20;2.90;;;;;;;;;;6158049;23;20488;-89
2023/08/03 03:01:40;;;;;;;3.23;2.97;;;16.90;99.90;;;;;;6159102;23;20410;-91
2023/08/03 03:04:08;;;;;;;4.20;3.70;;;16.80;99.90;;;;;;6158863;23;20417;-91
2023/08/03 03:06:38;;;;;;;3.23;2.70;;;16.90;99.90;;;;;;6158677;23;20798;-91
2023/08/03 03:09:06;;;;;;;3.90;3.17;;;;;;;;;;6157065;23;20438;-91
2023/08/03 03:11:35;;;;;;;2.57;2.33;;;16.80;99.90;;;;;;6158232;23;20410;-91
2023/08/03 03:14:04;;;;;;;2.60;2.40;;;16.70;99.90;;;;;;6158154;23;20422;-91
2023/08/03 03:16:32;;;;;;;5.47;3.40;;;;;;;;;;6158523;23;20881;-91
2023/08/03 03:19:04;;;;;;;3.73;2.53;;;16.70;99.90;;;;;;6158324;23;20444;-90
2023/08/03 03:21:43;;;;;;;3.70;2.83;;;16.60;99.90;;;;;;6159374;23;20414;-90
2023/08/03 03:24:11;;;;;;;3.90;3.10;;;;;;;;;;6158602;23;20502;-90
2023/08/03 03:26:38;;;;;;;3.73;3.43;;;;;;;;;;6158821;23;20806;-90
2023/08/03 03:29:05;;;;;;;5.87;2.97;;;;;;;;;;6159074;23;20487;-91
2023/08/03 03:31:50;;;;;;;6.00;3.37;;;16.60;99.90;;;;;;6160176;23;20466;-91
2023/08/03 03:34:18;;;;;;;2.73;2.53;;;16.60;99.90;;;;;;6161067;23;20427;-90
2023/08/03 03:36:46;;;;;;;3.53;3.23;;;;;;;;;;6168133;23;20404;-88
2023/08/03 03:39:16;;;;;;;2.53;2.33;;;;;;;;;;6184172;23;20425;-87
2023/08/03 03:41:45;;;;;;;2.63;2.43;;;;;;;;;;6170804;23;20434;-90
2023/08/03 03:44:12;;;;;;;2.90;2.67;;;;;;;;;;6184287;23;20400;-89
2023/08/03 03:46:40;;;;;;;3.20;2.80;;;;;;;;;;6184202;23;20409;-87
2023/08/03 03:49:11;;;;;;;4.63;3.30;;;16.80;99.90;;;;;;6184312;23;20434;-90
2023/08/03 03:51:42;;;;;;;3.40;2.60;;;16.80;99.90;;;;;;6181570;23;20415;-89
2023/08/03 03:54:10;;;;;;;7.73;4.17;;;;;;;;;;6168073;23;20411;-90
2023/08/03 03:56:40;;;;;;;3.27;2.97;;;16.80;99.90;;;;;;6161973;23;20450;-88
2023/08/03 03:59:12;;;;;;;3.67;3.00;;;16.80;99.90;;;;;;6161143;23;20429;-88
2023/08/03 04:01:42;;;;;;;3.67;3.10;;;;;;;;;;6163096;23;20387;-91
2023/08/03 04:04:10;;;;;;;3.27;2.80;;;;;;;;;;6162854;23;20407;-90
2023/08/03 04:06:38;;;;;;;3.63;3.30;;;;;;;;;;6164356;23;20423;-90
2023/08/03 04:09:11;;;;;;;3.70;2.50;;;16.80;99.90;;;;;;6166280;23;20422;-90
2023/08/03 04:11:39;;;;;;;5.57;3.50;;;;;;;;;;6181047;23;20454;-89
2023/08/03 04:14:20;;;;;;;6.00;2.70;;;16.90;99.90;;;;;;6182435;23;20401;-89
2023/08/03 04:16:52;;;;;;;4.10;2.83;;;;;;;;;;6183032;23;20420;-89
2023/08/03 04:19:25;;;;;;;3.07;2.30;;;;;;;;;;6181314;23;20426;-90
2023/08/03 04:21:55;;;;;;;3.77;3.37;;;17.00;99.90;;;;;;6178949;23;20438;-90
2023/08/03 04:24:23;;;;;;;4.20;2.90;;;16.90;99.90;;;;;;6173471;23;20418;-90
2023/08/03 04:26:50;;;;;;;2.60;2.40;;;17.00;99.90;;;;;;6178896;23;20890;-89
2023/08/03 04:29:17;;;;;;;6.27;2.80;;;17.10;99.90;;;;;;6162398;23;20420;-90
2023/08/03 04:31:46;;;;;;;3.67;2.63;;;;;;;;;;6163472;23;20862;-90
2023/08/03 04:34:12;;;;;;;5.00;3.00;;;17.20;99.90;;;;;;6167687;23;20445;-89
2023/08/03 04:36:43;;;;;;;5.27;2.67;;;17.10;99.90;;;;;;6185692;23;20399;-88
2023/08/03 04:39:10;;;;;;;6.77;3.27;;;;;;;;;;6185288;23;20430;-88
2023/08/03 04:41:39;;;;;;;3.80;2.17;;;17.30;99.90;;;;;;6183576;23;20422;-89
2023/08/03 04:44:09;;;;;;;5.27;3.10;;;17.10;99.90;;;;;;6164404;23;20404;-90
2023/08/03 04:46:36;;;;;;;5.43;2.57;;;;;;;;;;6162606;23;20901;-90
2023/08/03 04:49:03;;;;;;;8.63;2.70;;;17.10;99.90;;;;;;6162135;23;20431;-89
2023/08/03 04:51:31;;;;;;;5.70;2.70;;;;;;;;;;6162363;23;20412;-90
2023/08/03 04:53:58;;;;;;;3.70;2.40;;;17.40;99.90;;;;;;6161903;23;20443;-89
2023/08/03 04:56:27;;;;;;;3.20;2.70;;;;;;;;;;6179076;23;20430;-89
2023/08/03 04:58:55;;;;;;;5.90;2.70;;;17.40;99.90;;;;;;6182346;23;20455;-91
2023/08/03 05:01:23;;;;;;;3.87;2.10;;;;;;;;;;6180288;23;20420;-91
2023/08/03 05:04:03;;;;;;;;;;;;;;;;;;;;;
2023/08/03 05:22:25;;;;;;;5.70;2.37;;;17.70;1.00;;;;;;6176380;23;20447;-91
2023/08/03 05:24:55;;;;;;;6.40;2.40;;;;;;;;;;6206128;23;20399;-91
2023/08/03 05:27:25;;;;;;;5.90;2.43;;;;;;;;;;6206619;23;20465;-91
2023/08/03 05:33:08;;;;;;;4.13;2.23;;;17.80;99.90;;;;;;6221622;23;20438;-94
2023/08/03 05:35:56;;;;;;;3.60;2.30;;;17.80;99.90;;;;;;6232687;23;20410;-92
2023/08/03 05:38:50;;;;;;;8.20;2.60;;;17.90;99.90;;;;;;6234944;23;20458;-92
2023/08/03 05:41:27;;;;;;;3.73;2.60;;;17.90;8.90;;;;;;6241658;22;20441;-91
2023/08/03 05:44:00;;;;;;;3.63;2.40;;;;;;;;;;6244469;22;20405;-92
2023/08/03 05:46:48;;;;;;;4.20;3.00;;;18.00;1.00;;;;;;6243107;22;20394;-92
2023/08/03 05:49:23;;;;;;;2.93;2.57;;;;;;;;;;6230750;23;20466;-92
2023/08/03 05:54:54;;;;;;;4.60;2.23;;;18.30;99.90;;;;;;6233742;22;20413;-91
2023/08/03 17:07:18;;;;;;;6.20;2.83;;;17.70;99.90;;;;;;6241271;23;20448;-89
2023/08/03 17:09:49;;;;;;;8.00;3.63;;;17.70;99.90;;;;;;6215066;23;20410;-87
2023/08/03 17:12:20;;;;;;;4.97;2.80;;;17.70;99.90;;;;;;6208270;23;20410;-88
2023/08/03 17:15:20;;;;;;;7.23;3.00;;;17.60;99.90;;;;;;6207894;23;20502;-88
2023/08/03 17:18:44;;;;;;;2.87;2.03;;;17.60;99.90;;;;;;6211901;23;20879;-87
2023/08/03 17:21:25;;;;;;;1.87;1.77;;;17.70;99.90;;;;;;6042002;23;20417;-90
2023/08/03 17:24:20;;;;;;;3.80;2.37;;;16.10;99.90;;;;;;6221088;23;20401;-89
2023/08/03 17:27:16;;;;;;;4.27;2.83;;;17.70;99.90;;;;;;6240783;23;20409;-88
2023/08/03 17:30:04;;;;;;;3.90;3.60;;;17.70;99.90;;;;;;6160221;23;20458;-87
2023/08/03 17:32:55;;;;;;;2.73;2.40;;;17.80;99.90;;;;;;6182882;23;20421;-87
2023/08/03 17:35:55;;;;;;;6.33;3.47;;;15.40;99.90;;;;;;6209287;23;20402;-87
2023/08/03 17:38:26;;;;;;;5.93;4.50;;;;;;;;;;6182387;23;20468;-87
2023/08/03 17:41:23;;;;;;;4.60;3.33;;;17.90;99.90;;;;;;6205853;23;20454;-86
2023/08/03 17:46:49;;;;;;;;;;;;;;;;;;;;;
2023/08/03 17:49:44;;;;;;;5.77;4.37;;;17.90;99.90;;;;;;6201321;23;20424;-87
2023/08/03 17:52:28;;;;;;;3.50;2.73;;;18.00;99.90;;;;;;6201777;23;20432;-89
2023/08/03 17:54:55;;;;;;;7.43;5.83;;;18.00;99.90;;;;;;6200962;23;20430;-87
2023/08/03 18:00:48;;;;;;;8.93;7.30;;;18.10;99.90;;;;;;6199581;23;20379;-87
2023/08/03 18:03:43;;;;;;;6.90;5.40;;;18.10;99.90;;;;;;6195531;23;20441;-88
2023/08/03 18:06:21;;;;;;;5.40;4.37;;;18.10;99.90;;;;;;6193878;23;20406;-87
2023/08/03 18:08:51;;;;;;;5.00;4.03;;;;;;;;;;6194540;23;20438;-87
2023/08/03 18:11:59;;;;;;;5.83;5.33;;;18.10;99.90;;;;;;6199019;23;20406;-87
2023/08/03 18:14:42;;;;;;;8.57;5.77;;;18.10;99.90;;;;;;6200088;23;20469;-87
2023/08/03 18:17:18;;;;;;;16.60;12.47;;;18.00;99.90;;;;;;6191661;23;20406;-88
2023/08/03 18:19:49;;;;;;;6.50;5.90;;;;;;;;;;6195423;23;20402;-88
2023/08/03 18:22:38;;;;;;;3.63;2.83;;;18.40;99.90;;;;;;6197539;23;20390;-87
2023/08/03 18:25:06;;;;;;;4.80;4.40;;;18.30;99.90;;;;;;6190305;23;20418;-88
2023/08/03 18:27:32;;;;;;;4.23;3.83;;;18.00;99.90;;;;;;6199297;23;20925;-89
2023/08/03 18:30:05;;;;;;;6.67;5.30;;;18.00;99.90;;;;;;6204644;23;20467;-89
2023/08/03 18:32:34;;;;;;;7.20;6.40;;;18.10;99.90;;;;;;6210103;23;20383;-87
2023/08/03 18:35:05;;;;;;;4.20;3.80;;;18.20;99.90;;;;;;6208434;23;20438;-89
2023/08/03 18:37:32;;;;;;;2.50;2.40;;;17.70;99.90;;;;;;6207130;23;20435;-86
2023/08/03 18:39:59;;;;;;;2.80;2.60;;;18.00;99.90;;;;;;6200660;23;20422;-87
2023/08/03 18:42:28;;;;;;;3.80;3.30;;;17.80;99.90;;;;;;6196473;23;20414;-87
2023/08/03 18:44:57;;;;;;;3.93;3.60;;;17.90;99.90;;;;;;6196820;23;20479;-86
2023/08/03 18:47:34;;;;;;;3.53;2.80;;;18.10;99.90;;;;;;6194784;23;20415;-86
2023/08/03 18:50:11;;;;;;;8.70;3.70;;;17.80;99.90;;;;;;6197672;23;20430;-88
2023/08/03 18:52:47;;;;;;;3.40;2.80;;;17.80;99.90;;;;;;6199303;23;20403;-87
2023/08/03 18:55:32;;;;;;;7.70;7.10;;;17.80;99.90;;;;;;6195949;23;20445;-88
2023/08/03 18:58:30;;;;;;;8.47;7.57;;;18.20;99.90;;;;;;6205419;23;20410;-85
2023/08/03 19:01:19;;;;;;;7.50;6.73;;;17.80;99.90;;;;;;6206094;23;20414;-87
2023/08/03 19:07:06;;;;;;;5.97;5.27;;;17.80;99.90;;;;;;6106281;23;20421;-87
2023/08/03 19:10:15;;;;;;;5.50;4.90;;;17.80;99.90;;;;;;6107188;23;20437;-88
2023/08/03 19:13:10;;;;;;;7.60;4.60;;;17.80;99.90;;;;;;6191353;23;20430;-87
2023/08/03 19:15:44;;;;;;;4.70;4.40;;;17.80;99.90;;;;;;6193461;23;20449;-89
2023/08/03 19:18:50;;;;;;;;;;;;;;;;;;;;;
2023/08/03 19:31:55;;;;;;;6.97;4.77;;;17.70;99.90;;;;;;6134368;23;20395;-86
2023/08/03 19:35:10;;;;;;;6.23;5.10;;;17.70;99.90;;;;;;6188297;23;20446;-88
2023/08/03 19:44:32;;;;;;;5.47;4.77;;;17.80;99.90;;;;;;6184915;23;20407;-88
2023/08/03 19:47:06;;;;;;;3.70;3.40;;;;;;;;;;6195659;23;20417;-88
2023/08/03 19:49:42;;;;;;;5.40;4.67;;;17.70;99.90;;;;;;6196827;23;20480;-87
2023/08/03 19:52:37;;;;;;;4.97;3.50;;;17.70;99.90;;;;;;6208186;23;20371;-87
2023/08/03 19:55:41;;;;;;;4.20;3.77;;;17.60;99.90;;;;;;6212571;23;20449;-88
2023/08/03 20:08:25;;;;;;;4.20;3.90;;;17.60;99.90;;;;;;6095191;23;20448;-86
2023/08/03 20:39:37;;;;;;;5.93;4.93;;;17.60;99.90;;;;;;6221297;22;20471;-91
2023/08/03 20:58:56;;;;;;;4.30;3.90;;;17.50;99.90;;;;;;6166116;23;20438;-91
2023/08/03 21:02:04;;;;;;;5.20;4.17;;;17.50;99.90;;;;;;6170211;23;20406;-92
2023/08/03 21:26:02;;;;;;;5.33;4.60;;;17.50;99.90;;;;;;5966433;23;20418;-92
2023/08/03 21:46:06;;;;;;;4.43;4.13;;;17.10;99.90;;;;;;5854946;24;20396;-92
2023/08/03 23:17:32;;;;;;;2.57;1.50;;;17.20;1.00;;;;;;6009194;23;20441;-89
2023/08/03 23:20:29;;;;;;;2.50;2.27;;;17.20;1.00;;;;;;6060973;23;20495;-89
